Terminal Aerodrome Forecast
Issued by NWS Raleigh/Durham, NC

Home | Current Version | Previous Version | Text Only | Print | Product List | Glossary On
Versions: 1 2 3 4 5 6 7 8 9 10 11 12 13 14 15 16 17 18 19 20 21 22 23 24 25 26 27 28 29 30 31 32 33 34 35 36 37 38 39 40 41 42 43 44
000
FTUS42 KRAH 230211 AAA
TAFRDU
TAF AMD
KRDU 230211Z 2302/2324 04008KT 2SM -RADZ BR OVC004
      TEMPO 2305/2309 3/4SM -DZ BR OVC002
     FM231700 01006KT 4SM -RADZ BR OVC007=

USA.gov is the U.S. government's official web portal to all federal, state and local government web resources and services.